Time;durP1;ratioP1;P1;durP2;ratioP2;P2;SDS_P1;SDS_P2;PMS_P1;PMS_P2;Temp;Humidity;BMP_temperature;BMP_pressure;BME280_temperature;BME280_humidity;BME280_pressure;Samples;Min_cycle;Max_cycle;Signal;HPM_P1;HPM_P2
2022/12/12 00:01:52;;;;;;;43.80;18.02;;;0.10;99.90;;;;;;5034434;28;20134;-79
2022/12/12 00:04:18;;;;;;;43.53;16.55;;;0.20;99.90;;;;;;5034528;28;20523;-79
2022/12/12 00:06:44;;;;;;;38.88;17.15;;;0.20;99.90;;;;;;5034962;28;20135;-79
2022/12/12 00:09:09;;;;;;;44.22;17.85;;;0.10;99.90;;;;;;5034116;28;20124;-79
2022/12/12 00:11:35;;;;;;;42.20;18.13;;;0.20;99.90;;;;;;5034370;28;20080;-79
2022/12/12 00:14:01;;;;;;;41.55;18.60;;;0.00;99.90;;;;;;5035410;28;20389;-79
2022/12/12 00:16:27;;;;;;;40.05;16.15;;;0.10;99.90;;;;;;5034120;28;20140;-79
2022/12/12 00:18:53;;;;;;;43.90;16.45;;;0.00;99.90;;;;;;5035258;28;20474;-79
2022/12/12 00:21:24;;;;;;;45.67;18.35;;;0.00;99.90;;;;;;5034138;28;20049;-79
2022/12/12 00:23:51;;;;;;;48.15;17.02;;;0.10;99.90;;;;;;5033779;28;20481;-79
2022/12/12 00:26:18;;;;;;;38.72;17.50;;;-0.10;99.90;;;;;;5035036;28;20090;-79
2022/12/12 00:28:44;;;;;;;42.15;17.63;;;0.00;99.90;;;;;;5034995;28;20041;-79
2022/12/12 00:31:09;;;;;;;46.90;17.55;;;-0.10;99.90;;;;;;5033638;28;20055;-80
2022/12/12 00:33:35;;;;;;;43.35;18.08;;;0.00;99.90;;;;;;5033658;28;20045;-80
2022/12/12 00:36:01;;;;;;;40.58;16.70;;;0.10;99.90;;;;;;5033918;28;20080;-79
2022/12/12 00:38:26;;;;;;;40.08;15.85;;;0.10;99.90;;;;;;5033869;28;20388;-80
2022/12/12 00:40:59;;;;;;;48.55;18.48;;;0.10;99.90;;;;;;5034808;28;20037;-79
2022/12/12 00:43:25;;;;;;;47.75;18.70;;;0.00;99.90;;;;;;5033430;28;20059;-79
2022/12/12 00:45:51;;;;;;;44.80;18.35;;;0.00;99.90;;;;;;5033635;28;20385;-79
2022/12/12 00:48:17;;;;;;;41.08;16.85;;;0.20;99.90;;;;;;5033602;28;20056;-79
2022/12/12 00:50:43;;;;;;;42.45;16.83;;;0.20;99.90;;;;;;5034660;28;20470;-79
2022/12/12 00:53:09;;;;;;;42.55;17.80;;;0.00;99.90;;;;;;5034560;28;20447;-79
2022/12/12 00:55:35;;;;;;;38.50;16.92;;;0.00;99.90;;;;;;5033117;28;20121;-79
2022/12/12 00:58:00;;;;;;;44.15;18.25;;;0.00;99.90;;;;;;5033246;28;20128;-79
2022/12/12 01:00:27;;;;;;;41.42;16.70;;;0.20;99.90;;;;;;5034534;28;20125;-79
2022/12/12 01:02:56;;;;;;;42.55;16.42;;;0.00;99.90;;;;;;5033170;28;20485;-79
2022/12/12 01:05:22;;;;;;;40.85;17.42;;;0.00;99.90;;;;;;5034318;28;20053;-79
2022/12/12 01:07:48;;;;;;;46.90;17.50;;;0.00;99.90;;;;;;5033123;28;20516;-79
2022/12/12 01:10:14;;;;;;;39.35;17.17;;;0.00;99.90;;;;;;5032875;28;20081;-79
2022/12/12 01:12:40;;;;;;;42.63;17.58;;;0.10;99.90;;;;;;5034251;28;20037;-79
2022/12/12 01:15:07;;;;;;;41.58;17.55;;;0.00;99.90;;;;;;5033118;28;20049;-79
2022/12/12 01:17:36;;;;;;;41.70;17.35;;;0.10;99.90;;;;;;5034054;28;20045;-79
2022/12/12 01:20:04;;;;;;;42.83;16.98;;;0.00;99.90;;;;;;5034128;28;20107;-79
2022/12/12 01:22:30;;;;;;;44.65;17.90;;;0.20;99.90;;;;;;5032812;28;20136;-79
2022/12/12 01:24:56;;;;;;;44.20;17.30;;;0.00;99.90;;;;;;5034008;28;20528;-79
2022/12/12 01:27:26;;;;;;;44.22;18.13;;;0.10;99.90;;;;;;5034084;28;20049;-79
2022/12/12 01:29:52;;;;;;;43.83;17.13;;;0.10;99.90;;;;;;5032701;28;20037;-79
2022/12/12 01:32:17;;;;;;;44.17;16.63;;;0.10;99.90;;;;;;5032657;28;20389;-79
2022/12/12 01:34:43;;;;;;;39.95;16.17;;;0.10;99.90;;;;;;5032636;28;20052;-79
2022/12/12 01:37:08;;;;;;;45.80;17.15;;;0.20;99.90;;;;;;5032819;28;20195;-79
2022/12/12 01:39:34;;;;;;;43.80;18.35;;;0.00;99.90;;;;;;5032435;28;20049;-79
2022/12/12 01:41:59;;;;;;;45.35;17.95;;;0.10;99.90;;;;;;5032750;28;20041;-80
2022/12/12 01:44:48;;;;;;;40.05;17.25;;;0.10;99.90;;;;;;5033588;28;20045;-79
2022/12/12 01:47:17;;;;;;;38.42;17.30;;;0.00;99.90;;;;;;5033730;28;20042;-79
2022/12/12 01:49:50;;;;;;;38.30;16.90;;;0.00;99.90;;;;;;5032211;28;20053;-79
2022/12/12 01:52:20;;;;;;;42.35;17.00;;;0.10;99.90;;;;;;5032610;28;20068;-79
2022/12/12 01:54:52;;;;;;;40.88;18.33;;;0.00;99.90;;;;;;5032615;28;20516;-79
2022/12/12 01:57:22;;;;;;;40.00;16.63;;;0.00;99.90;;;;;;5032392;28;20055;-80
2022/12/12 01:59:48;;;;;;;40.45;17.00;;;0.10;99.90;;;;;;5032524;28;20042;-79
2022/12/12 02:02:14;;;;;;;38.22;15.93;;;0.00;99.90;;;;;;5032393;28;20065;-79
2022/12/12 02:04:40;;;;;;;44.97;18.60;;;0.00;99.90;;;;;;5032407;28;20389;-79
2022/12/12 02:07:06;;;;;;;41.42;16.90;;;0.00;99.90;;;;;;5032520;28;20108;-79
2022/12/12 02:09:33;;;;;;;42.05;16.85;;;-0.10;99.90;;;;;;5032120;28;20440;-79
2022/12/12 02:11:58;;;;;;;39.40;17.10;;;0.10;99.90;;;;;;5032491;28;20041;-79
2022/12/12 02:14:46;;;;;;;39.55;16.40;;;-0.10;99.90;;;;;;5032424;28;20482;-79
2022/12/12 02:17:18;;;;;;;38.97;16.73;;;0.00;99.90;;;;;;5038154;28;20083;-79
2022/12/12 02:20:18;;;;;;;42.60;17.30;;;-0.10;99.90;;;;;;5037599;28;20076;-80
2022/12/12 02:23:07;;;;;;;40.00;16.67;;;0.00;99.90;;;;;;5036086;28;20058;-80
2022/12/12 02:25:39;;;;;;;39.10;16.63;;;0.00;99.90;;;;;;5036281;28;20053;-79
2022/12/12 02:28:40;;;;;;;37.65;15.98;;;-0.10;99.90;;;;;;5036107;28;20393;-79
2022/12/12 02:31:15;;;;;;;41.35;17.27;;;-0.10;99.90;;;;;;5037248;28;20508;-80
2022/12/12 02:34:00;;;;;;;41.97;16.95;;;-0.20;99.90;;;;;;5035880;28;20052;-80
2022/12/12 02:36:44;;;;;;;44.80;16.95;;;-0.10;99.90;;;;;;5037274;28;20131;-80
2022/12/12 02:39:26;;;;;;;39.42;16.33;;;-0.20;99.90;;;;;;5037007;28;20088;-80
2022/12/12 02:41:59;;;;;;;40.75;17.50;;;-0.10;99.90;;;;;;5035827;28;20404;-80
2022/12/12 02:44:38;;;;;;;43.53;16.70;;;-0.10;99.90;;;;;;5035639;28;20053;-80
2022/12/12 02:47:46;;;;;;;38.20;15.88;;;-0.10;99.90;;;;;;5037078;28;20034;-80
2022/12/12 02:50:19;;;;;;;42.53;16.65;;;-0.20;99.90;;;;;;4995463;28;20090;-80
2022/12/12 02:52:46;;;;;;;42.10;16.25;;;-0.10;99.90;;;;;;4979102;28;20096;-79
2022/12/12 02:55:12;;;;;;;42.30;15.75;;;-0.20;99.90;;;;;;5008699;28;20448;-80
2022/12/12 02:57:40;;;;;;;39.95;16.10;;;-0.10;99.90;;;;;;5036757;28;20055;-79
2022/12/12 03:00:09;;;;;;;44.67;17.40;;;-0.10;99.90;;;;;;5035818;28;20088;-79
2022/12/12 03:09:55;;;;;;;43.47;15.48;;;0.00;99.90;;;;;;5034212;28;20054;-79
2022/12/12 03:12:32;;;;;;;38.78;16.48;;;0.00;99.90;;;;;;5036649;28;20050;-80
2022/12/12 03:15:25;;;;;;;36.53;15.40;;;-0.10;99.90;;;;;;5036450;28;20095;-80
2022/12/12 03:18:08;;;;;;;38.47;17.13;;;0.00;99.90;;;;;;5035338;28;20367;-79
2022/12/12 03:20:48;;;;;;;39.33;16.73;;;0.00;99.90;;;;;;5035425;28;20057;-79
2022/12/12 03:23:20;;;;;;;38.22;15.50;;;0.00;99.90;;;;;;5035885;28;20045;-80
2022/12/12 03:26:10;;;;;;;37.33;15.43;;;-0.10;99.90;;;;;;5034885;28;20054;-79
2022/12/12 03:28:54;;;;;;;38.13;15.63;;;-0.10;99.90;;;;;;5035205;28;20072;-80
2022/12/12 03:31:24;;;;;;;38.78;15.82;;;-0.10;99.90;;;;;;5035256;28;20072;-79
2022/12/12 03:33:58;;;;;;;38.30;15.43;;;-0.20;99.90;;;;;;5036156;28;20041;-80
2022/12/12 03:36:26;;;;;;;37.20;15.48;;;-0.20;99.90;;;;;;5036162;28;20045;-80
2022/12/12 03:38:57;;;;;;;42.25;15.90;;;-0.20;99.90;;;;;;5035892;28;20041;-79
2022/12/12 03:41:33;;;;;;;42.22;16.70;;;-0.10;99.90;;;;;;5034914;28;20449;-80
2022/12/12 03:44:26;;;;;;;40.55;15.88;;;0.00;99.90;;;;;;5034956;28;20060;-80
2022/12/12 03:47:10;;;;;;;37.78;16.38;;;-0.20;99.90;;;;;;5031284;28;20076;-80
2022/12/12 03:49:56;;;;;;;;;;;-0.20;99.90;;;;;;5036365;28;20490;-79
2022/12/12 03:52:45;;;;;;;40.22;16.45;;;-0.10;99.90;;;;;;5035864;28;19925;-79
2022/12/12 03:55:32;;;;;;;40.63;15.85;;;-0.10;99.90;;;;;;5014523;28;20049;-79
2022/12/12 03:58:04;;;;;;;45.05;18.45;;;-0.10;99.90;;;;;;5035624;28;20073;-79
2022/12/12 04:00:32;;;;;;;40.97;17.95;;;0.00;99.90;;;;;;5034576;28;20477;-79
2022/12/12 04:03:10;;;;;;;57.33;26.05;;;-0.20;99.90;;;;;;5035596;28;20041;-79
2022/12/12 04:12:57;;;;;;;34.92;14.52;;;-0.20;99.90;;;;;;5034478;28;20089;-79
2022/12/12 04:15:02;;;;;;;31.83;14.38;;;-0.10;99.90;;;;;;5035684;28;20064;-80
2022/12/12 04:17:43;;;;;;;35.33;16.25;;;-0.20;99.90;;;;;;5034290;28;20034;-80
2022/12/12 04:23:56;;;;;;;36.92;15.38;;;-0.20;99.90;;;;;;5020767;28;20416;-80
2022/12/12 04:26:41;;;;;;;35.58;15.07;;;-0.10;99.90;;;;;;5033794;28;20057;-80
2022/12/12 04:29:06;;;;;;;38.60;16.77;;;-0.20;99.90;;;;;;5033758;28;20053;-80
2022/12/12 04:31:47;;;;;;;36.88;15.77;;;-0.10;99.90;;;;;;5035086;28;20056;-79
2022/12/12 04:34:21;;;;;;;39.15;15.32;;;-0.20;99.90;;;;;;5035017;28;20037;-79
2022/12/12 04:36:48;;;;;;;34.90;14.93;;;-0.20;99.90;;;;;;5035034;28;20077;-79
2022/12/12 04:39:17;;;;;;;37.58;15.63;;;-0.10;99.90;;;;;;5033376;28;20063;-79
2022/12/12 04:41:45;;;;;;;38.55;15.73;;;-0.10;99.90;;;;;;5033553;28;20042;-79
2022/12/12 04:44:14;;;;;;;35.97;15.68;;;-0.10;99.90;;;;;;5033795;28;20050;-79
2022/12/12 04:46:41;;;;;;;36.75;15.80;;;-0.10;99.90;;;;;;5034800;28;20077;-79
2022/12/12 04:49:17;;;;;;;38.47;15.32;;;-0.10;99.90;;;;;;5033246;28;20052;-80
2022/12/12 04:51:47;;;;;;;33.70;14.93;;;-0.10;99.90;;;;;;5033609;28;20481;-79
2022/12/12 04:54:32;;;;;;;41.33;15.80;;;0.00;99.90;;;;;;5033298;28;20042;-79
2022/12/12 04:57:00;;;;;;;38.17;14.93;;;0.00;99.90;;;;;;5033276;28;20374;-79
2022/12/12 04:59:26;;;;;;;33.50;15.23;;;-0.20;99.90;;;;;;5033343;28;20058;-79
2022/12/12 05:02:03;;;;;;;35.72;14.88;;;-0.20;99.90;;;;;;5033058;28;20047;-79
2022/12/12 05:05:14;;;;;;;39.80;16.77;;;0.00;99.90;;;;;;5033413;28;20072;-80
2022/12/12 05:07:46;;;;;;;34.60;14.60;;;-0.10;99.90;;;;;;5031640;28;20103;-79
2022/12/12 05:10:14;;;;;;;36.25;15.18;;;0.00;99.90;;;;;;5034117;28;20438;-79
2022/12/12 05:12:49;;;;;;;34.63;15.45;;;-0.10;99.90;;;;;;5032970;28;20073;-80
2022/12/12 05:15:17;;;;;;;42.28;16.05;;;0.00;99.90;;;;;;5034272;28;20067;-80
2022/12/12 05:17:51;;;;;;;37.67;14.80;;;-0.10;99.90;;;;;;5034033;28;20040;-80
2022/12/12 05:20:16;;;;;;;38.55;15.98;;;0.00;99.90;;;;;;5033055;28;20053;-80
2022/12/12 05:22:42;;;;;;;40.58;16.08;;;0.00;99.90;;;;;;5033977;28;20547;-80
2022/12/12 05:25:08;;;;;;;34.72;15.45;;;-0.10;99.90;;;;;;5032714;28;20049;-80
2022/12/12 05:27:33;;;;;;;35.05;14.68;;;-0.10;99.90;;;;;;5033033;28;20148;-79
2022/12/12 05:29:59;;;;;;;35.40;14.38;;;-0.10;99.90;;;;;;5033855;28;20394;-80
2022/12/12 05:32:25;;;;;;;37.53;14.93;;;-0.20;99.90;;;;;;5033944;28;20474;-80
2022/12/12 05:34:50;;;;;;;35.65;16.08;;;-0.10;99.90;;;;;;5033960;28;20045;-79
2022/12/12 05:37:16;;;;;;;37.55;14.68;;;0.00;99.90;;;;;;5033898;28;20148;-80
2022/12/12 05:39:42;;;;;;;35.38;13.75;;;-0.20;99.90;;;;;;5033857;28;20175;-80
2022/12/12 05:42:07;;;;;;;36.78;13.93;;;-0.20;99.90;;;;;;5032531;28;20048;-80
2022/12/12 05:44:33;;;;;;;34.03;14.20;;;-0.30;99.90;;;;;;5033813;28;20045;-79
2022/12/12 05:46:58;;;;;;;33.50;14.40;;;-0.20;99.90;;;;;;5032801;28;20033;-80
2022/12/12 05:49:24;;;;;;;33.38;13.43;;;-0.30;99.90;;;;;;5031995;28;20375;-80
2022/12/12 05:51:50;;;;;;;34.72;14.00;;;-0.20;99.90;;;;;;5033398;28;20149;-79
2022/12/12 05:54:15;;;;;;;34.53;13.60;;;-0.40;99.90;;;;;;5032635;28;20033;-79
2022/12/12 05:56:41;;;;;;;35.13;14.60;;;-0.40;99.90;;;;;;5033698;28;20433;-79
2022/12/12 05:59:06;;;;;;;34.08;13.82;;;-0.30;99.90;;;;;;5033616;28;20037;-79
2022/12/12 06:01:32;;;;;;;32.47;14.07;;;-0.40;99.90;;;;;;5032619;28;20053;-79
2022/12/12 06:03:58;;;;;;;34.92;13.43;;;-0.30;99.90;;;;;;5033333;28;20411;-79
2022/12/12 06:06:23;;;;;;;37.22;14.18;;;-0.50;99.90;;;;;;5032221;28;20047;-80
2022/12/12 06:08:50;;;;;;;35.63;13.68;;;-0.40;99.90;;;;;;5032370;28;20033;-80
2022/12/12 06:11:16;;;;;;;31.40;14.35;;;-0.40;99.90;;;;;;5032249;28;20049;-79
2022/12/12 06:13:42;;;;;;;77.90;24.77;;;-0.50;99.90;;;;;;5032454;28;20051;-79
2022/12/12 06:16:09;;;;;;;95.25;30.85;;;-0.30;99.90;;;;;;5033450;28;20128;-79
2022/12/12 06:18:36;;;;;;;63.38;21.02;;;-0.50;99.90;;;;;;5033288;28;20099;-79
2022/12/12 06:21:07;;;;;;;35.30;13.90;;;-0.40;99.90;;;;;;5032035;28;20488;-79
2022/12/12 06:23:38;;;;;;;36.72;14.07;;;-0.30;99.90;;;;;;5033270;28;20057;-79
2022/12/12 06:26:05;;;;;;;34.28;14.15;;;-0.40;99.90;;;;;;5032194;28;20481;-79
2022/12/12 06:28:31;;;;;;;37.03;13.95;;;-0.40;99.90;;;;;;5032435;28;20053;-80
2022/12/12 06:30:56;;;;;;;34.28;13.27;;;-0.30;99.90;;;;;;5032057;28;20965;-80
2022/12/12 06:33:22;;;;;;;33.78;13.40;;;-0.30;99.90;;;;;;5031939;28;20046;-80
2022/12/12 06:36:10;;;;;;;33.83;15.48;;;-0.40;99.90;;;;;;5031954;28;20041;-80
2022/12/12 06:38:36;;;;;;;34.35;13.32;;;-0.20;99.90;;;;;;5032326;28;20362;-80
2022/12/12 06:41:07;;;;;;;38.92;14.52;;;-0.40;99.90;;;;;;5032255;28;20050;-80
2022/12/12 06:43:33;;;;;;;33.83;13.63;;;-0.40;99.90;;;;;;5032026;28;20158;-80
2022/12/12 06:46:05;;;;;;;37.45;15.18;;;-0.30;99.90;;;;;;5035987;28;20511;-79
2022/12/12 06:48:32;;;;;;;37.15;15.02;;;-0.30;99.90;;;;;;5051734;28;20166;-79
2022/12/12 06:50:59;;;;;;;35.17;13.90;;;-0.40;99.90;;;;;;5051722;28;20498;-80
2022/12/12 06:53:25;;;;;;;37.28;15.27;;;-0.40;99.90;;;;;;5052861;28;20503;-79
2022/12/12 06:55:50;;;;;;;35.40;15.07;;;-0.40;99.90;;;;;;5051993;28;20064;-79
2022/12/12 06:58:16;;;;;;;41.40;14.25;;;-0.20;99.90;;;;;;5052820;28;20412;-80
2022/12/12 07:00:42;;;;;;;35.15;13.85;;;-0.30;99.90;;;;;;5052828;28;20041;-79
2022/12/12 07:03:11;;;;;;;38.70;15.02;;;-0.30;99.90;;;;;;5055171;28;20037;-79
2022/12/12 07:05:36;;;;;;;36.55;15.20;;;-0.30;99.90;;;;;;5056509;28;20507;-79
2022/12/12 07:08:03;;;;;;;39.13;14.80;;;-0.40;99.90;;;;;;5055316;28;20045;-79
2022/12/12 07:10:30;;;;;;;35.78;14.27;;;-0.20;99.90;;;;;;5055174;28;20059;-80
2022/12/12 07:12:56;;;;;;;33.72;14.70;;;-0.20;99.90;;;;;;5056539;28;20099;-79
2022/12/12 07:15:22;;;;;;;43.00;16.60;;;-0.20;99.90;;;;;;5056433;28;20045;-79
2022/12/12 07:17:50;;;;;;;37.25;15.70;;;-0.30;99.90;;;;;;5056341;28;20049;-79
2022/12/12 07:20:16;;;;;;;36.85;15.18;;;-0.20;99.90;;;;;;5056352;28;20052;-80
2022/12/12 07:22:42;;;;;;;35.20;14.48;;;-0.20;99.90;;;;;;5054936;28;20110;-79
2022/12/12 07:25:08;;;;;;;33.90;14.05;;;-0.30;99.90;;;;;;5056237;28;20378;-79
2022/12/12 07:27:33;;;;;;;34.83;14.40;;;-0.40;99.90;;;;;;5055053;28;20048;-79
2022/12/12 07:29:59;;;;;;;34.15;13.32;;;-0.10;99.90;;;;;;5054704;28;20049;-79
2022/12/12 07:32:25;;;;;;;35.65;13.95;;;-0.20;99.90;;;;;;5054762;28;20048;-79
2022/12/12 07:34:51;;;;;;;33.00;13.90;;;-0.20;99.90;;;;;;5054821;28;20049;-80
2022/12/12 07:37:16;;;;;;;30.40;13.35;;;-0.30;99.90;;;;;;5055812;28;20124;-80
2022/12/12 07:39:42;;;;;;;37.55;15.63;;;-0.30;99.90;;;;;;5053754;28;20053;-79
2022/12/12 07:42:08;;;;;;;34.72;14.43;;;-0.40;99.90;;;;;;5053520;28;20091;-79
2022/12/12 07:44:34;;;;;;;33.67;14.15;;;-0.20;99.90;;;;;;5054624;28;20041;-79
2022/12/12 07:46:59;;;;;;;36.90;14.55;;;-0.30;99.90;;;;;;5054690;28;20037;-80
2022/12/12 07:49:26;;;;;;;38.33;16.90;;;-0.40;99.90;;;;;;5055571;28;20040;-80
2022/12/12 07:51:52;;;;;;;42.08;18.13;;;-0.30;99.90;;;;;;5054453;28;20057;-79
2022/12/12 07:54:18;;;;;;;62.88;21.35;;;-0.30;99.90;;;;;;5054181;28;20051;-79
2022/12/12 07:56:43;;;;;;;42.17;15.45;;;-0.40;99.90;;;;;;5054118;28;20048;-79
2022/12/12 07:59:09;;;;;;;40.28;16.05;;;-0.30;99.90;;;;;;5055577;28;20049;-80
2022/12/12 08:01:35;;;;;;;48.47;19.25;;;-0.40;99.90;;;;;;5055288;28;20045;-80
2022/12/12 08:04:00;;;;;;;49.80;20.75;;;-0.40;99.90;;;;;;5055397;28;20389;-79
2022/12/12 08:06:26;;;;;;;58.75;26.33;;;-0.30;99.90;;;;;;5054219;28;20060;-79
2022/12/12 08:08:52;;;;;;;60.92;25.15;;;-0.30;99.90;;;;;;5054056;28;20048;-79
2022/12/12 08:11:21;;;;;;;83.95;34.80;;;-0.30;99.90;;;;;;5053957;28;20071;-79
2022/12/12 08:13:47;;;;;;;62.53;28.17;;;-0.30;99.90;;;;;;5053477;28;20053;-79
2022/12/12 08:16:22;;;;;;;46.35;20.95;;;-0.40;99.90;;;;;;5055065;28;20393;-80
2022/12/12 08:18:48;;;;;;;55.92;25.92;;;-0.40;99.90;;;;;;5055154;28;20124;-79
2022/12/12 08:21:16;;;;;;;55.63;27.15;;;-0.30;99.90;;;;;;5053786;28;20076;-79
2022/12/12 08:23:42;;;;;;;44.40;21.63;;;-0.40;99.90;;;;;;5053588;28;20053;-79
2022/12/12 08:26:11;;;;;;;58.53;29.73;;;-0.50;99.90;;;;;;5053782;28;20507;-79
2022/12/12 08:28:40;;;;;;;64.13;28.80;;;-0.40;99.90;;;;;;5053664;28;20052;-79
2022/12/12 08:31:09;;;;;;;54.17;24.38;;;-0.50;99.90;;;;;;5053507;28;20048;-79
2022/12/12 08:33:34;;;;;;;50.53;21.42;;;-0.50;99.90;;;;;;5053387;28;20045;-79
2022/12/12 08:36:17;;;;;;;57.10;27.40;;;-0.40;99.90;;;;;;5053423;28;20052;-81
2022/12/12 08:38:42;;;;;;;53.47;26.08;;;-0.50;99.90;;;;;;5053437;28;20041;-84
2022/12/12 08:41:09;;;;;;;32.22;14.77;;;-0.50;99.90;;;;;;5046087;28;20047;-79
2022/12/12 08:43:36;;;;;;;35.65;15.88;;;-0.50;99.90;;;;;;5034439;28;20052;-79
2022/12/12 08:46:03;;;;;;;32.05;13.55;;;-0.50;99.90;;;;;;5034553;28;20052;-79
2022/12/12 08:48:29;;;;;;;35.97;15.00;;;-0.50;99.90;;;;;;5034481;28;20095;-78
2022/12/12 08:50:56;;;;;;;33.28;14.82;;;-0.50;99.90;;;;;;5034398;28;20053;-78
2022/12/12 08:53:22;;;;;;;33.53;15.23;;;-0.40;99.90;;;;;;5032966;28;20051;-78
2022/12/12 08:55:48;;;;;;;34.08;14.40;;;-0.50;99.90;;;;;;5034114;28;20045;-78
2022/12/12 08:58:14;;;;;;;36.72;14.82;;;-0.50;99.90;;;;;;5034150;28;20045;-78
2022/12/12 09:00:40;;;;;;;33.85;14.50;;;-0.50;99.90;;;;;;5034065;28;20042;-80
2022/12/12 09:03:06;;;;;;;35.40;16.70;;;-0.40;99.90;;;;;;5032940;28;20045;-78
2022/12/12 09:05:31;;;;;;;36.33;17.52;;;-0.50;99.90;;;;;;5034186;28;20045;-80
2022/12/12 09:07:58;;;;;;;36.00;16.30;;;-0.40;99.90;;;;;;5032707;28;20133;-81
2022/12/12 09:10:27;;;;;;;39.75;15.93;;;-0.50;99.90;;;;;;5032563;28;20064;-81
2022/12/12 09:12:54;;;;;;;30.73;15.30;;;-0.50;99.90;;;;;;5032769;28;20038;-81
2022/12/12 09:15:20;;;;;;;32.40;14.77;;;-0.40;99.90;;;;;;5033838;28;20060;-78
2022/12/12 09:17:46;;;;;;;35.97;15.57;;;-0.40;99.90;;;;;;5032579;28;20053;-79
2022/12/12 09:20:12;;;;;;;36.08;16.27;;;-0.30;99.90;;;;;;5032612;28;20087;-77
2022/12/12 09:22:38;;;;;;;34.10;14.98;;;-0.30;99.90;;;;;;5032537;28;20177;-76
2022/12/12 09:25:04;;;;;;;35.30;15.85;;;-0.30;99.90;;;;;;5032511;28;20077;-75
2022/12/12 09:27:30;;;;;;;39.35;17.42;;;-0.20;99.90;;;;;;5032632;28;20037;-77
2022/12/12 09:29:56;;;;;;;40.28;17.70;;;-0.10;99.90;;;;;;5032200;28;20057;-77
2022/12/12 09:32:22;;;;;;;31.05;15.35;;;0.00;99.90;;;;;;5032456;28;20045;-76
2022/12/12 09:34:48;;;;;;;36.28;16.27;;;0.00;99.90;;;;;;5032366;28;20401;-76
2022/12/12 09:37:13;;;;;;;33.33;15.70;;;0.10;99.90;;;;;;5032436;28;20053;-76
2022/12/12 09:39:39;;;;;;;32.83;14.38;;;0.20;99.90;;;;;;5034154;28;20536;-80
2022/12/12 09:42:25;;;;;;;32.92;15.15;;;0.20;99.90;;;;;;5051994;28;20086;-77
2022/12/12 09:44:56;;;;;;;35.95;15.82;;;0.30;99.90;;;;;;5053456;28;20041;-77
2022/12/12 09:48:06;;;;;;;34.45;15.18;;;0.30;99.90;;;;;;5052504;28;20102;-77
2022/12/12 09:50:36;;;;;;;31.98;14.43;;;0.30;99.90;;;;;;5034434;28;20060;-77
2022/12/12 09:53:06;;;;;;;34.15;14.95;;;0.50;99.90;;;;;;5048316;28;20103;-77
2022/12/12 09:55:37;;;;;;;39.17;15.32;;;0.60;99.90;;;;;;5052177;28;20134;-77
2022/12/12 09:58:12;;;;;;;32.80;15.65;;;0.60;99.90;;;;;;5052024;28;20431;-77
2022/12/12 10:00:43;;;;;;;35.47;15.10;;;0.70;99.90;;;;;;5052041;28;20537;-77
2022/12/12 10:03:28;;;;;;;33.08;16.35;;;0.90;99.90;;;;;;5052446;28;20075;-77
2022/12/12 10:06:07;;;;;;;30.90;15.15;;;0.90;99.90;;;;;;5052289;28;20049;-77
2022/12/12 10:09:07;;;;;;;35.58;14.90;;;1.00;99.90;;;;;;5052041;28;20041;-77
2022/12/12 10:11:51;;;;;;;30.90;15.02;;;0.90;99.90;;;;;;5051878;28;20098;-77
2022/12/12 10:14:30;;;;;;;32.90;14.95;;;1.00;99.90;;;;;;5052291;28;20049;-77
2022/12/12 10:16:58;;;;;;;34.40;17.90;;;1.10;99.90;;;;;;5052406;28;20419;-77
2022/12/12 10:19:28;;;;;;;33.35;15.15;;;1.20;99.90;;;;;;5052222;28;20076;-77
2022/12/12 10:22:01;;;;;;;33.55;14.93;;;1.30;99.90;;;;;;5051698;28;20045;-77
2022/12/12 10:24:43;;;;;;;33.08;15.48;;;1.30;99.90;;;;;;5052119;28;20048;-77
2022/12/12 10:27:11;;;;;;;33.90;16.67;;;1.30;99.90;;;;;;5052072;28;20045;-76
2022/12/12 10:29:40;;;;;;;33.92;14.48;;;1.30;99.90;;;;;;5051776;28;20162;-77
2022/12/12 10:32:23;;;;;;;28.63;14.63;;;1.40;99.90;;;;;;5052029;28;20049;-77
2022/12/12 10:35:07;;;;;;;36.70;16.23;;;1.40;99.90;;;;;;5051767;28;20532;-77
2022/12/12 10:37:48;;;;;;;33.65;15.20;;;1.50;99.90;;;;;;5054516;28;20139;-77
2022/12/12 10:40:57;;;;;;;36.33;17.60;;;1.50;99.90;;;;;;5055870;28;20048;-76
2022/12/12 10:43:30;;;;;;;34.40;16.05;;;1.60;99.90;;;;;;5055838;28;20049;-77
2022/12/12 10:46:17;;;;;;;31.05;16.45;;;1.60;99.90;;;;;;5055795;28;20041;-77
2022/12/12 10:48:44;;;;;;;32.55;15.90;;;1.60;99.90;;;;;;5055577;28;20099;-77
2022/12/12 10:51:14;;;;;;;33.03;17.58;;;1.70;99.90;;;;;;5055438;28;20063;-77
2022/12/12 10:53:40;;;;;;;32.83;17.35;;;1.70;99.90;;;;;;5055587;28;20084;-77
2022/12/12 10:56:17;;;;;;;27.77;15.10;;;1.70;99.90;;;;;;5055430;28;20059;-77
2022/12/12 10:58:50;;;;;;;31.58;14.15;;;1.80;99.90;;;;;;5055242;28;20086;-77
2022/12/12 11:01:20;;;;;;;26.63;14.65;;;1.80;99.90;;;;;;5055304;28;20041;-76
2022/12/12 11:03:48;;;;;;;32.55;14.70;;;1.80;99.90;;;;;;5055086;28;20049;-77
2022/12/12 11:06:18;;;;;;;36.17;15.07;;;1.80;99.90;;;;;;5055402;28;20053;-77
2022/12/12 11:08:54;;;;;;;34.85;16.38;;;1.80;99.90;;;;;;5055096;28;20045;-77
2022/12/12 11:11:23;;;;;;;31.77;16.52;;;1.90;99.90;;;;;;5054903;28;20136;-77
2022/12/12 11:13:52;;;;;;;31.38;15.55;;;2.00;99.90;;;;;;5055213;28;20041;-77
2022/12/12 11:16:22;;;;;;;34.67;14.55;;;2.00;99.90;;;;;;5054928;28;20510;-77
2022/12/12 11:18:57;;;;;;;32.92;15.63;;;2.00;99.90;;;;;;5055436;28;20045;-77
2022/12/12 11:21:23;;;;;;;29.40;14.68;;;1.90;99.90;;;;;;5055120;28;20033;-77
2022/12/12 11:23:54;;;;;;;33.15;15.55;;;1.90;99.90;;;;;;5054686;28;20126;-77
2022/12/12 11:26:21;;;;;;;31.50;15.55;;;2.00;99.90;;;;;;5054758;28;20442;-77
2022/12/12 11:29:00;;;;;;;34.67;16.05;;;2.00;99.90;;;;;;5054667;28;20094;-77
2022/12/12 11:31:33;;;;;;;32.42;15.88;;;2.10;99.90;;;;;;5054602;28;20397;-77
2022/12/12 11:34:02;;;;;;;36.13;16.15;;;2.00;99.90;;;;;;5054856;28;20492;-77
2022/12/12 11:36:47;;;;;;;36.38;17.88;;;2.00;99.90;;;;;;5054566;28;20040;-77
2022/12/12 11:39:40;;;;;;;34.53;16.70;;;2.00;99.90;;;;;;5054715;28;20056;-77
2022/12/12 11:42:24;;;;;;;34.35;16.75;;;2.00;99.90;;;;;;5052343;28;20079;-77
2022/12/12 11:45:18;;;;;;;32.80;17.55;;;2.00;99.90;;;;;;5054403;28;20178;-77
2022/12/12 11:47:46;;;;;;;30.10;15.18;;;2.00;99.90;;;;;;5053272;28;20107;-77
2022/12/12 11:50:22;;;;;;;29.25;14.68;;;2.00;99.90;;;;;;5054197;28;20041;-77
2022/12/12 11:52:50;;;;;;;34.92;14.85;;;2.00;99.90;;;;;;5054286;28;20132;-77
2022/12/12 11:55:22;;;;;;;34.10;15.55;;;1.90;99.90;;;;;;5054484;28;20051;-77
2022/12/12 11:57:53;;;;;;;30.85;16.20;;;2.00;99.90;;;;;;5054466;28;20053;-77
2022/12/12 12:00:30;;;;;;;32.22;15.25;;;2.00;99.90;;;;;;5054353;28;20045;-77
2022/12/12 12:03:21;;;;;;;33.72;17.83;;;2.10;99.90;;;;;;5054419;28;20123;-77
2022/12/12 12:06:05;;;;;;;31.80;15.32;;;2.00;99.90;;;;;;5055309;28;20041;-77
2022/12/12 12:08:57;;;;;;;32.55;16.17;;;2.10;99.90;;;;;;5054302;28;20060;-77
2022/12/12 12:11:37;;;;;;;36.05;15.77;;;2.10;99.90;;;;;;5053880;28;20044;-77
2022/12/12 12:14:29;;;;;;;33.25;14.98;;;2.10;99.90;;;;;;5054108;28;20045;-77
2022/12/12 12:17:25;;;;;;;32.58;16.20;;;2.10;99.90;;;;;;5054071;28;20055;-77
2022/12/12 12:20:22;;;;;;;32.97;16.42;;;2.10;99.90;;;;;;5053732;28;20407;-77
2022/12/12 12:23:04;;;;;;;34.25;17.40;;;2.00;99.90;;;;;;5053702;28;20057;-77
2022/12/12 12:26:09;;;;;;;37.08;17.70;;;2.00;99.90;;;;;;5053835;28;20114;-77
2022/12/12 12:28:49;;;;;;;36.45;15.55;;;2.10;99.90;;;;;;5053282;28;20092;-77
2022/12/12 12:31:50;;;;;;;34.53;15.57;;;2.10;99.90;;;;;;5053602;28;20120;-77
2022/12/12 12:34:37;;;;;;;38.15;17.23;;;2.10;99.90;;;;;;5053534;28;20056;-77
2022/12/12 12:37:18;;;;;;;33.70;16.27;;;2.20;99.90;;;;;;5054691;28;20048;-77
2022/12/12 12:39:51;;;;;;;30.67;15.13;;;2.00;99.90;;;;;;5054968;28;20047;-77
2022/12/12 12:42:47;;;;;;;30.80;14.80;;;2.00;99.90;;;;;;5054894;28;20044;-77
2022/12/12 12:45:28;;;;;;;36.42;17.45;;;2.10;99.90;;;;;;5053299;28;20053;-77
2022/12/12 12:48:02;;;;;;;35.15;15.93;;;2.00;99.90;;;;;;5053082;28;20123;-77
2022/12/12 12:50:33;;;;;;;35.78;16.05;;;2.00;99.90;;;;;;5053092;28;20064;-77
2022/12/12 12:53:06;;;;;;;35.47;17.90;;;2.00;99.90;;;;;;5053079;28;20083;-77
2022/12/12 12:55:37;;;;;;;31.58;15.45;;;1.90;99.90;;;;;;5053058;28;20489;-77
2022/12/12 12:58:05;;;;;;;35.17;17.15;;;1.90;99.90;;;;;;5053042;28;20075;-77
2022/12/12 13:00:31;;;;;;;34.28;15.98;;;1.90;99.90;;;;;;5053776;28;20045;-77
2022/12/12 13:03:03;;;;;;;37.30;16.88;;;1.80;99.90;;;;;;5052833;28;20048;-77
2022/12/12 13:05:39;;;;;;;33.75;14.93;;;1.80;99.90;;;;;;5053184;28;20545;-77
2022/12/12 13:08:16;;;;;;;37.08;16.65;;;1.90;99.90;;;;;;5052777;28;20408;-77
2022/12/12 13:10:48;;;;;;;36.47;16.13;;;1.90;99.90;;;;;;5052637;28;20549;-77
2022/12/12 13:13:20;;;;;;;34.97;16.52;;;1.90;99.90;;;;;;5052720;28;20048;-77
2022/12/12 13:15:51;;;;;;;34.72;16.88;;;1.90;99.90;;;;;;5052775;28;20045;-77